Time;durP1;ratioP1;P1;durP2;ratioP2;P2;SDS_P1;SDS_P2;PMS_P1;PMS_P2;Temp;Humidity;BMP_temperature;BMP_pressure;BME280_temperature;BME280_humidity;BME280_pressure;Samples;Min_cycle;Max_cycle;Signal;HPM_P1;HPM_P2
2022/04/16 00:01:05;;;;;;;0.10;0.10;;;7.80;99.90;12.80;88045.00;;;;4995328;28;20709;-70
2022/04/16 00:03:34;;;;;;;0.10;0.10;;;7.80;99.90;12.80;88045.00;;;;4995454;28;20193;-70
2022/04/16 00:06:04;;;;;;;0.10;0.10;;;7.80;99.90;12.80;88045.00;;;;4995281;28;20251;-71
2022/04/16 00:08:32;;;;;;;0.10;0.10;;;7.80;99.90;12.80;88045.00;;;;4995292;28;20679;-70
2022/04/16 00:11:02;;;;;;;0.10;0.10;;;7.70;99.90;12.80;88045.00;;;;4995124;28;20212;-71
2022/04/16 00:13:29;;;;;;;0.10;0.10;;;7.70;99.90;12.80;88045.00;;;;4995894;28;20200;-71
2022/04/16 00:15:58;;;;;;;0.10;0.10;;;7.70;99.90;12.80;88045.00;;;;4999365;28;20185;-70
2022/04/16 00:18:26;;;;;;;0.10;0.10;;;7.70;99.90;12.80;88045.00;;;;5001721;28;20307;-72
2022/04/16 00:20:56;;;;;;;0.08;0.08;;;7.70;99.90;12.80;88045.00;;;;4998805;28;20220;-70
2022/04/16 00:23:25;;;;;;;0.10;0.10;;;7.70;99.90;12.80;88045.00;;;;4995257;28;20539;-71
2022/04/16 00:25:56;;;;;;;0.10;0.10;;;7.80;99.90;12.80;88045.00;;;;4994555;28;20276;-71
2022/04/16 00:28:27;;;;;;;0.10;0.10;;;7.70;99.90;12.80;88045.00;;;;4996036;28;20223;-71
2022/04/16 00:30:56;;;;;;;0.10;0.10;;;7.70;99.90;12.80;88045.00;;;;4995984;28;20732;-71
2022/04/16 00:33:26;;;;;;;0.10;0.10;;;7.70;99.90;12.80;88045.00;;;;4995635;28;20659;-72
2022/04/16 00:35:55;;;;;;;0.10;0.10;;;7.70;99.90;12.80;88045.00;;;;4994774;28;20200;-71
2022/04/16 00:38:23;;;;;;;0.10;0.10;;;7.60;99.90;12.80;88045.00;;;;4995077;28;20220;-71
2022/04/16 00:40:52;;;;;;;0.10;0.10;;;7.60;99.90;12.80;88045.00;;;;4995780;28;20710;-71
2022/04/16 00:43:22;;;;;;;0.10;0.10;;;7.60;99.90;12.80;88045.00;;;;4995806;28;20193;-72
2022/04/16 00:45:53;;;;;;;0.10;0.10;;;7.60;99.90;12.80;88045.00;;;;4995397;28;20196;-71
2022/04/16 00:48:22;;;;;;;0.10;0.10;;;7.70;99.90;12.80;88045.00;;;;4995779;28;20635;-71
2022/04/16 00:50:52;;;;;;;0.10;0.10;;;7.70;99.90;12.80;88045.00;;;;4994483;28;20717;-72
2022/04/16 00:53:21;;;;;;;0.05;0.05;;;7.80;99.90;12.80;88045.00;;;;4994273;28;20552;-72
2022/04/16 00:55:49;;;;;;;0.10;0.10;;;7.70;99.90;12.80;88045.00;;;;4994478;28;20188;-71
2022/04/16 00:58:17;;;;;;;0.10;0.10;;;7.70;99.90;12.80;88045.00;;;;4993913;28;20228;-70
2022/04/16 01:00:45;;;;;;;0.10;0.10;;;7.70;99.90;12.80;88045.00;;;;4994220;28;20289;-72
2022/04/16 01:03:15;;;;;;;0.00;0.00;;;7.70;99.90;12.80;88045.00;;;;4994558;28;20200;-71
2022/04/16 01:05:43;;;;;;;0.10;0.10;;;7.70;99.90;12.80;88045.00;;;;4993790;28;20588;-71
2022/04/16 01:08:11;;;;;;;0.03;0.03;;;7.60;99.90;12.80;88045.00;;;;4993698;28;20546;-71
2022/04/16 01:10:40;;;;;;;0.08;0.08;;;7.40;99.90;12.80;88045.00;;;;4993725;28;20216;-71
2022/04/16 01:13:08;;;;;;;0.10;0.10;;;7.40;99.90;12.80;88045.00;;;;4993726;28;20197;-70
2022/04/16 01:15:39;;;;;;;0.10;0.10;;;7.30;99.90;12.80;88045.00;;;;4993859;28;20666;-71
2022/04/16 01:18:08;;;;;;;0.10;0.10;;;7.30;99.90;12.80;88045.00;;;;4994044;28;20698;-71
2022/04/16 01:20:38;;;;;;;0.10;0.10;;;7.30;99.90;12.80;88045.00;;;;4994127;28;20216;-71
2022/04/16 01:23:08;;;;;;;0.00;0.00;;;7.30;99.90;12.80;88045.00;;;;4993765;28;20196;-71
2022/04/16 01:25:37;;;;;;;0.10;0.10;;;7.30;99.90;12.80;88045.00;;;;4995063;28;20200;-70
2022/04/16 01:28:06;;;;;;;0.10;0.10;;;7.20;99.90;12.80;88045.00;;;;4995980;28;20278;-70
2022/04/16 01:30:35;;;;;;;0.10;0.10;;;7.20;99.90;12.80;88045.00;;;;4994334;28;20352;-70
2022/04/16 01:33:03;;;;;;;0.10;0.10;;;7.30;99.90;12.80;88045.00;;;;4993259;28;20233;-71
2022/04/16 01:35:33;;;;;;;0.10;0.10;;;7.20;99.90;12.80;88045.00;;;;4993173;28;20196;-71
2022/04/16 01:38:05;;;;;;;0.10;0.10;;;7.20;99.90;12.80;88045.00;;;;4992982;28;20666;-71
2022/04/16 01:40:34;;;;;;;0.10;0.10;;;7.20;99.90;12.80;88045.00;;;;4993450;28;20255;-71
2022/04/16 01:43:03;;;;;;;0.10;0.10;;;7.30;99.90;12.80;88045.00;;;;4993128;28;20192;-71
2022/04/16 01:45:33;;;;;;;0.10;0.10;;;7.30;99.90;12.80;88045.00;;;;4993048;28;20654;-71
2022/04/16 01:48:02;;;;;;;0.10;0.10;;;7.30;99.90;12.80;88045.00;;;;4993424;28;20196;-71
2022/04/16 01:50:30;;;;;;;0.10;0.10;;;7.30;99.90;12.80;88045.00;;;;4993628;28;20298;-72
2022/04/16 01:52:58;;;;;;;0.10;0.10;;;7.20;99.90;12.80;88045.00;;;;4993696;28;20192;-71
2022/04/16 01:55:27;;;;;;;0.10;0.10;;;7.20;99.90;12.80;88045.00;;;;4993535;28;20556;-71
2022/04/16 01:57:56;;;;;;;0.10;0.10;;;7.20;99.90;12.80;88045.00;;;;4992633;28;20196;-71
2022/04/16 02:00:26;;;;;;;0.10;0.10;;;7.20;99.90;12.80;88045.00;;;;4993433;28;20228;-71
2022/04/16 02:02:54;;;;;;;0.10;0.10;;;7.20;99.90;12.80;88045.00;;;;4992837;28;20201;-71
2022/04/16 02:05:22;;;;;;;0.10;0.10;;;7.00;99.90;12.80;88045.00;;;;4993370;28;20200;-71
2022/04/16 02:07:51;;;;;;;0.10;0.10;;;6.90;99.90;12.80;88045.00;;;;4993475;28;20255;-71
2022/04/16 02:10:19;;;;;;;0.10;0.10;;;6.80;99.90;12.80;88045.00;;;;4993975;28;20236;-71
2022/04/16 02:12:47;;;;;;;0.10;0.10;;;6.80;99.90;12.80;88045.00;;;;4995620;28;20192;-71
2022/04/16 02:15:17;;;;;;;0.10;0.10;;;6.70;99.90;12.80;88045.00;;;;4995967;28;20730;-71
2022/04/16 02:17:45;;;;;;;0.10;0.10;;;6.80;99.90;12.80;88045.00;;;;4993746;28;20732;-71
2022/04/16 02:20:13;;;;;;;0.10;0.10;;;6.80;99.90;12.80;88045.00;;;;4992808;28;20232;-70
2022/04/16 02:22:43;;;;;;;0.10;0.10;;;6.70;99.90;12.80;88045.00;;;;4992624;28;20259;-71
2022/04/16 02:25:13;;;;;;;0.10;0.10;;;6.70;99.90;12.80;88045.00;;;;4992758;28;20246;-71
2022/04/16 02:27:41;;;;;;;0.10;0.10;;;6.70;99.90;12.80;88045.00;;;;4992617;28;20557;-71
2022/04/16 02:30:14;;;;;;;0.10;0.10;;;6.70;99.90;12.80;88045.00;;;;4992409;28;20713;-71
2022/04/16 02:32:46;;;;;;;0.10;0.10;;;6.70;99.90;12.80;88045.00;;;;4993676;28;20721;-70
2022/04/16 02:35:17;;;;;;;0.10;0.10;;;6.60;99.90;12.80;88045.00;;;;4992941;28;20200;-70
2022/04/16 02:37:46;;;;;;;0.10;0.10;;;6.60;99.90;12.80;88045.00;;;;4996668;28;20196;-69
2022/04/16 02:40:15;;;;;;;0.10;0.10;;;6.60;99.90;12.80;88045.00;;;;4997345;28;20796;-69
2022/04/16 02:42:45;;;;;;;0.10;0.10;;;6.60;99.90;12.80;88045.00;;;;4997260;28;20204;-69
2022/04/16 02:48:04;;;;;;;0.10;0.10;;;6.60;99.90;12.80;88045.00;;;;4998249;28;20196;-70
2022/04/16 02:50:32;;;;;;;0.10;0.10;;;6.50;99.90;12.80;88045.00;;;;4996645;28;20611;-69
2022/04/16 02:53:02;;;;;;;0.10;0.10;;;6.40;99.90;12.80;88045.00;;;;4996423;28;20431;-70
2022/04/16 02:55:32;;;;;;;0.10;0.10;;;6.40;99.90;12.80;88045.00;;;;4996125;28;20670;-70
2022/04/16 02:58:00;;;;;;;0.10;0.10;;;6.40;99.90;12.80;88045.00;;;;4995913;28;20196;-70
2022/04/16 03:00:28;;;;;;;0.10;0.10;;;6.50;99.90;12.80;88045.00;;;;4995971;28;20712;-70
2022/04/16 03:02:56;;;;;;;0.10;0.10;;;6.50;99.90;12.80;88045.00;;;;4996173;28;20211;-72
2022/04/16 03:05:26;;;;;;;0.10;0.10;;;6.60;99.90;12.80;88045.00;;;;4995963;28;20204;-70
2022/04/16 03:07:54;;;;;;;0.10;0.10;;;6.60;99.90;12.80;88045.00;;;;4995896;28;20196;-70
2022/04/16 03:10:23;;;;;;;0.10;0.10;;;6.60;99.90;12.80;88045.00;;;;4995616;28;20215;-70
2022/04/16 03:12:53;;;;;;;0.10;0.10;;;6.60;99.90;12.80;88045.00;;;;4995863;28;20196;-70
2022/04/16 03:18:09;;;;;;;0.10;0.10;;;6.60;99.90;12.80;88045.00;;;;4996203;28;20199;-70
2022/04/16 03:20:40;;;;;;;0.10;0.10;;;6.50;99.90;12.80;88045.00;;;;4995972;28;20251;-70
2022/04/16 03:23:09;;;;;;;0.10;0.10;;;6.60;99.90;12.80;88045.00;;;;4996015;28;20211;-70
2022/04/16 03:25:40;;;;;;;0.10;0.10;;;6.60;99.90;12.80;88045.00;;;;4996359;28;20204;-70
2022/04/16 03:28:08;;;;;;;0.10;0.10;;;6.60;99.90;12.80;88045.00;;;;4995931;28;20196;-70
2022/04/16 03:30:37;;;;;;;0.10;0.10;;;6.60;99.90;12.80;88045.00;;;;5002181;28;20243;-70
2022/04/16 03:33:05;;;;;;;0.10;0.10;;;6.60;99.90;12.80;88045.00;;;;4995562;28;20192;-70
2022/04/16 03:35:34;;;;;;;0.10;0.10;;;6.50;99.90;12.80;88045.00;;;;4995267;28;20266;-70
2022/04/16 03:38:04;;;;;;;0.10;0.10;;;6.60;99.90;12.80;88045.00;;;;4995366;28;20200;-70
2022/04/16 03:40:32;;;;;;;0.10;0.10;;;6.60;99.90;12.80;88045.00;;;;4995340;28;20228;-70
2022/04/16 03:43:02;;;;;;;0.10;0.10;;;6.60;99.90;12.80;88045.00;;;;4995247;28;20196;-70
2022/04/16 03:45:34;;;;;;;0.10;0.10;;;6.50;99.90;12.80;88045.00;;;;4995190;28;20572;-70
2022/04/16 03:48:05;;;;;;;0.10;0.10;;;6.50;99.90;12.80;88045.00;;;;4994578;28;20196;-70
2022/04/16 03:50:34;;;;;;;0.10;0.10;;;6.50;99.90;12.80;88045.00;;;;4995025;28;20455;-70
2022/04/16 03:53:04;;;;;;;0.10;0.10;;;6.50;99.90;12.80;88045.00;;;;4995159;28;20250;-70
2022/04/16 04:01:08;;;;;;;0.10;0.10;;;6.30;99.90;12.80;88045.00;;;;5012563;28;20227;-70
2022/04/16 04:03:36;;;;;;;0.10;0.10;;;6.20;99.90;12.80;88045.00;;;;5015164;28;20603;-70
2022/04/16 04:06:04;;;;;;;0.10;0.10;;;6.20;99.90;12.80;88045.00;;;;5014590;28;20634;-70
2022/04/16 04:08:34;;;;;;;0.10;0.10;;;6.20;99.90;12.80;88045.00;;;;5014932;28;20204;-70
2022/04/16 04:11:03;;;;;;;0.10;0.10;;;6.20;99.90;12.80;88045.00;;;;5014449;28;20220;-70
2022/04/16 04:13:31;;;;;;;0.10;0.10;;;6.20;99.90;12.80;88045.00;;;;5014643;28;20196;-70
2022/04/16 04:15:59;;;;;;;0.10;0.10;;;6.20;99.90;12.80;88045.00;;;;5013945;28;20195;-70
2022/04/16 04:18:27;;;;;;;0.10;0.10;;;6.20;99.90;12.80;88045.00;;;;5014573;28;20214;-70
2022/04/16 04:20:56;;;;;;;0.10;0.10;;;6.10;99.90;12.80;88045.00;;;;5014773;28;20235;-71
2022/04/16 04:23:25;;;;;;;0.10;0.10;;;6.10;99.90;12.80;88045.00;;;;5014045;28;20275;-70
2022/04/16 04:25:55;;;;;;;0.10;0.10;;;6.10;99.90;12.80;88045.00;;;;5013632;28;20220;-70
2022/04/16 04:28:23;;;;;;;0.10;0.10;;;6.10;99.90;12.80;88045.00;;;;5013890;28;20242;-70
2022/04/16 04:30:50;;;;;;;0.10;0.10;;;6.10;99.90;12.80;88045.00;;;;5014220;28;20222;-70
2022/04/16 04:33:19;;;;;;;0.10;0.10;;;6.20;99.90;12.80;88045.00;;;;5013673;28;20196;-70
2022/04/16 04:35:50;;;;;;;0.10;0.10;;;6.20;99.90;12.80;88045.00;;;;5013403;28;20188;-70
2022/04/16 04:38:18;;;;;;;0.10;0.10;;;6.20;99.90;12.80;88045.00;;;;5013523;28;20202;-70
2022/04/16 04:40:46;;;;;;;0.10;0.10;;;6.20;99.90;12.80;88045.00;;;;5013419;28;20227;-70
2022/04/16 04:43:15;;;;;;;0.10;0.10;;;6.30;99.90;12.80;88045.00;;;;5013639;28;20940;-70
2022/04/16 04:45:46;;;;;;;0.10;0.10;;;6.30;99.90;12.80;88045.00;;;;5013360;28;20215;-70
2022/04/16 04:48:14;;;;;;;0.10;0.10;;;6.30;99.90;12.80;88045.00;;;;5013466;28;20222;-70
2022/04/16 04:50:42;;;;;;;0.10;0.10;;;6.20;99.90;12.80;88045.00;;;;5013471;28;20572;-70
2022/04/16 04:53:10;;;;;;;0.10;0.10;;;6.20;99.90;12.80;88045.00;;;;5013380;28;20245;-70
2022/04/16 04:55:37;;;;;;;0.10;0.10;;;6.20;99.90;12.80;88045.00;;;;5013432;28;20199;-69
2022/04/16 04:58:06;;;;;;;0.10;0.10;;;6.20;99.90;12.80;88045.00;;;;5013253;28;20200;-69
2022/04/16 05:00:35;;;;;;;0.10;0.10;;;6.20;99.90;12.80;88045.00;;;;5012709;28;20606;-70
2022/04/16 05:03:03;;;;;;;0.10;0.10;;;6.20;99.90;12.80;88045.00;;;;5013116;28;20254;-70
2022/04/16 05:05:31;;;;;;;0.10;0.10;;;6.20;99.90;12.80;88045.00;;;;5000936;28;20200;-70
2022/04/16 05:07:59;;;;;;;0.10;0.10;;;6.20;99.90;12.80;88045.00;;;;5007361;28;20204;-70
2022/04/16 05:10:27;;;;;;;0.10;0.10;;;6.20;99.90;12.80;88045.00;;;;5012931;28;20219;-70
2022/04/16 05:12:58;;;;;;;0.10;0.10;;;6.20;99.90;12.80;88045.00;;;;5011720;28;20203;-70
2022/04/16 05:15:26;;;;;;;0.10;0.10;;;6.20;99.90;12.80;88045.00;;;;5013010;28;20204;-70
2022/04/16 05:17:55;;;;;;;0.10;0.10;;;6.10;99.90;12.80;88045.00;;;;5012791;28;20203;-70
2022/04/16 05:20:23;;;;;;;0.10;0.10;;;6.10;99.90;12.80;88045.00;;;;5012823;28;20227;-70
2022/04/16 05:22:52;;;;;;;0.10;0.10;;;6.00;99.90;12.80;88045.00;;;;5012997;28;20254;-70
2022/04/16 05:25:19;;;;;;;0.10;0.10;;;5.90;99.90;12.80;88045.00;;;;5012902;28;20653;-70
2022/04/16 05:27:47;;;;;;;0.10;0.10;;;5.80;99.90;12.80;88045.00;;;;5012695;28;20552;-70
2022/04/16 05:30:22;;;;;;;0.10;0.10;;;5.70;99.90;12.80;88045.00;;;;5012832;28;20273;-70
2022/04/16 05:32:50;;;;;;;0.10;0.10;;;5.70;99.90;12.80;88045.00;;;;5012710;28;20203;-70
2022/04/16 05:35:20;;;;;;;0.10;0.10;;;5.70;99.90;12.80;88045.00;;;;5012711;28;20198;-70
2022/04/16 05:37:48;;;;;;;0.10;0.10;;;5.50;99.90;12.80;88045.00;;;;5012456;28;20247;-70
2022/04/16 05:40:16;;;;;;;0.10;0.10;;;5.50;99.90;12.80;88045.00;;;;5012445;28;20697;-70
2022/04/16 05:42:45;;;;;;;0.10;0.10;;;5.50;99.90;12.80;88045.00;;;;5013090;28;20583;-70
2022/04/16 05:45:15;;;;;;;0.10;0.10;;;5.40;99.90;12.80;88045.00;;;;5013276;28;20191;-70
2022/04/16 05:47:44;;;;;;;0.10;0.10;;;5.40;99.90;12.80;88045.00;;;;5013277;28;20200;-70
2022/04/16 05:50:14;;;;;;;0.10;0.10;;;5.30;99.90;12.80;88045.00;;;;5013319;28;20728;-70
2022/04/16 05:52:44;;;;;;;0.10;0.10;;;5.10;99.90;12.80;88045.00;;;;5013508;28;20192;-70
2022/04/16 05:55:13;;;;;;;0.10;0.10;;;4.90;99.90;12.80;88045.00;;;;5013502;28;20715;-70
2022/04/16 05:57:42;;;;;;;0.10;0.10;;;4.90;99.90;12.80;88045.00;;;;5012728;28;20271;-70
2022/04/16 06:00:13;;;;;;;0.10;0.10;;;4.90;99.90;12.80;88045.00;;;;5012173;28;20222;-70
2022/04/16 06:02:42;;;;;;;0.10;0.10;;;4.90;99.90;12.80;88045.00;;;;5013235;28;20265;-70
2022/04/16 06:05:11;;;;;;;0.10;0.10;;;4.90;99.90;12.80;88045.00;;;;5009506;28;20210;-71
2022/04/16 06:07:39;;;;;;;0.10;0.10;;;5.00;99.90;12.80;88045.00;;;;5011849;28;20208;-70
2022/04/16 06:10:10;;;;;;;0.10;0.10;;;5.10;99.90;12.80;88045.00;;;;5007651;28;20226;-70
2022/04/16 06:12:38;;;;;;;0.10;0.10;;;5.10;99.90;12.80;88045.00;;;;5011828;28;20571;-70
2022/04/16 06:15:07;;;;;;;0.10;0.10;;;5.10;99.90;12.80;88045.00;;;;5012211;28;20195;-71
2022/04/16 06:17:35;;;;;;;0.10;0.10;;;5.10;99.90;12.80;88045.00;;;;5011991;28;20195;-71
2022/04/16 06:20:07;;;;;;;0.10;0.10;;;5.10;99.90;12.80;88045.00;;;;5002657;28;20631;-71
2022/04/16 06:22:35;;;;;;;0.10;0.10;;;5.10;99.90;12.80;88045.00;;;;5012153;28;20239;-71
2022/04/16 06:25:04;;;;;;;0.10;0.10;;;5.10;99.90;12.80;88045.00;;;;5012209;28;20199;-71
2022/04/16 06:27:38;;;;;;;0.10;0.10;;;5.10;99.90;12.80;88045.00;;;;5027188;28;20665;-70
2022/04/16 06:30:09;;;;;;;0.10;0.10;;;5.00;99.90;12.80;88045.00;;;;5012075;28;20278;-71
2022/04/16 06:32:38;;;;;;;0.10;0.10;;;5.00;99.90;12.80;88045.00;;;;5012260;28;20617;-71
2022/04/16 06:35:07;;;;;;;0.10;0.10;;;4.90;99.90;12.80;88045.00;;;;5011932;28;20246;-71
2022/04/16 06:37:36;;;;;;;0.10;0.10;;;5.00;99.90;12.80;88045.00;;;;5011822;28;20246;-70
2022/04/16 06:40:06;;;;;;;0.10;0.10;;;4.90;99.90;12.80;88045.00;;;;5011034;28;20277;-71
2022/04/16 06:42:36;;;;;;;0.10;0.10;;;4.80;99.90;12.80;88045.00;;;;5011721;28;20240;-71
2022/04/16 06:45:06;;;;;;;0.10;0.10;;;4.80;99.90;12.80;88045.00;;;;5019474;28;20202;-70
2022/04/16 06:47:34;;;;;;;0.10;0.10;;;4.80;99.90;12.80;88045.00;;;;5017474;28;20590;-71
2022/04/16 06:50:03;;;;;;;0.10;0.10;;;4.70;99.90;12.80;88045.00;;;;5022825;28;20219;-71
2022/04/16 06:52:32;;;;;;;0.10;0.10;;;4.80;99.90;12.80;88045.00;;;;5025121;28;20211;-71
2022/04/16 06:55:00;;;;;;;0.10;0.10;;;4.80;99.90;12.80;88045.00;;;;5021941;28;20707;-71
2022/04/16 06:57:28;;;;;;;0.10;0.10;;;4.90;99.90;12.80;88045.00;;;;5020504;28;20204;-71
2022/04/16 07:00:06;;;;;;;0.10;0.10;;;5.00;99.90;12.80;88045.00;;;;5019946;28;20218;-71
2022/04/16 07:02:34;;;;;;;0.10;0.10;;;5.00;99.90;12.80;88045.00;;;;5023175;28;20219;-71
2022/04/16 07:05:03;;;;;;;0.10;0.10;;;5.20;99.90;12.80;88045.00;;;;5020474;28;20211;-71
2022/04/16 07:07:31;;;;;;;0.10;0.10;;;5.30;99.90;12.80;88045.00;;;;5012019;28;20269;-71
2022/04/16 07:10:00;;;;;;;0.10;0.10;;;5.40;99.90;12.80;88045.00;;;;5012553;28;20212;-71
2022/04/16 07:12:28;;;;;;;0.10;0.10;;;5.30;99.90;12.80;88045.00;;;;5012143;28;20219;-71
2022/04/16 07:14:56;;;;;;;0.10;0.10;;;5.40;99.90;12.80;88045.00;;;;5011724;28;20191;-71
2022/04/16 07:17:25;;;;;;;0.10;0.10;;;5.50;99.90;12.80;88045.00;;;;5011786;28;20199;-71
2022/04/16 07:19:54;;;;;;;0.10;0.10;;;5.50;99.90;12.80;88045.00;;;;5011879;28;20195;-71
2022/04/16 07:22:22;;;;;;;0.10;0.10;;;5.50;99.90;12.80;88045.00;;;;5011577;28;20246;-71
2022/04/16 07:24:51;;;;;;;0.10;0.10;;;5.50;99.90;12.80;88045.00;;;;5015363;28;20254;-71
2022/04/16 07:27:19;;;;;;;0.10;0.10;;;5.40;99.90;12.80;88045.00;;;;5015124;28;20184;-71
2022/04/16 07:29:47;;;;;;;0.10;0.10;;;5.40;99.90;12.80;88045.00;;;;5014830;28;20605;-71
2022/04/16 07:32:15;;;;;;;0.10;0.10;;;5.30;99.90;12.80;88045.00;;;;5015184;28;20207;-71
2022/04/16 07:34:44;;;;;;;0.10;0.10;;;5.20;99.90;12.80;88045.00;;;;5017388;28;20191;-71
2022/04/16 07:37:12;;;;;;;0.10;0.10;;;5.30;99.90;12.80;88045.00;;;;5016398;28;20215;-71
2022/04/16 07:39:40;;;;;;;0.10;0.10;;;5.30;99.90;12.80;88045.00;;;;5014552;28;20214;-71
2022/04/16 07:42:08;;;;;;;0.10;0.10;;;5.30;99.90;12.80;88045.00;;;;5014506;28;20596;-72
2022/04/16 07:44:36;;;;;;;0.10;0.10;;;5.40;99.90;12.80;88045.00;;;;5013321;28;20204;-71
2022/04/16 07:47:05;;;;;;;0.10;0.10;;;5.40;99.90;12.80;88045.00;;;;5014308;28;20200;-71
2022/04/16 07:49:33;;;;;;;0.10;0.10;;;5.50;99.90;12.80;88045.00;;;;5014901;28;20202;-72
2022/04/16 07:52:02;;;;;;;0.10;0.10;;;5.50;99.90;12.80;88045.00;;;;5014287;28;20311;-71
2022/04/16 07:54:30;;;;;;;0.10;0.10;;;5.40;99.90;12.80;88045.00;;;;5015501;28;20198;-71
2022/04/16 07:56:58;;;;;;;0.10;0.10;;;5.40;99.90;12.80;88045.00;;;;5014037;28;20218;-71
2022/04/16 07:59:26;;;;;;;0.10;0.10;;;5.50;99.90;12.80;88045.00;;;;5014919;28;20681;-71
2022/04/16 08:01:54;;;;;;;0.10;0.10;;;5.50;99.90;12.80;88045.00;;;;5015080;28;20251;-71
2022/04/16 08:04:22;;;;;;;0.10;0.10;;;5.60;99.90;12.80;88045.00;;;;5015618;28;20234;-71
2022/04/16 08:06:50;;;;;;;0.10;0.10;;;5.70;99.90;12.80;88045.00;;;;5014631;28;20188;-71
2022/04/16 08:09:20;;;;;;;0.10;0.10;;;5.90;99.90;12.80;88045.00;;;;5014206;28;20283;-71
2022/04/16 08:11:48;;;;;;;0.10;0.10;;;6.10;99.90;12.80;88045.00;;;;5014318;28;20405;-71
2022/04/16 08:14:21;;;;;;;0.10;0.10;;;6.20;99.90;12.80;88045.00;;;;5014499;28;20366;-71
2022/04/16 08:16:49;;;;;;;0.10;0.10;;;6.40;99.90;12.80;88045.00;;;;5013625;28;20222;-71
2022/04/16 08:19:16;;;;;;;0.10;0.10;;;6.50;99.90;12.80;88045.00;;;;5014217;28;20657;-71
2022/04/16 08:21:44;;;;;;;0.10;0.10;;;6.50;99.90;12.80;88045.00;;;;5014154;28;20231;-71
2022/04/16 08:24:32;;;;;;;0.10;0.10;;;6.40;99.90;12.80;88045.00;;;;5014904;28;20211;-71
2022/04/16 08:27:02;;;;;;;0.10;0.10;;;6.30;99.90;12.80;88045.00;;;;5014651;28;20612;-71
2022/04/16 08:29:30;;;;;;;0.05;0.05;;;6.30;99.90;12.80;88045.00;;;;5014511;28;20195;-71
2022/04/16 08:31:58;;;;;;;0.10;0.10;;;6.10;99.90;12.80;88045.00;;;;5014456;28;20215;-71
2022/04/16 08:34:45;;;;;;;0.10;0.10;;;6.10;99.90;12.80;88045.00;;;;5013635;28;20670;-71
2022/04/16 08:37:13;;;;;;;0.10;0.10;;;6.10;99.90;12.80;88045.00;;;;5013417;28;20520;-71
2022/04/16 08:39:41;;;;;;;0.05;0.05;;;6.10;99.90;12.80;88045.00;;;;5013551;28;20577;-71
2022/04/16 08:42:11;;;;;;;0.10;0.10;;;6.10;99.90;12.80;88045.00;;;;5013523;28;20589;-71
2022/04/16 08:44:40;;;;;;;0.10;0.10;;;6.20;99.90;12.80;88045.00;;;;5013739;28;20199;-71
2022/04/16 08:47:10;;;;;;;0.10;0.10;;;6.20;99.90;12.80;88045.00;;;;5013174;28;20204;-71
2022/04/16 08:49:39;;;;;;;0.10;0.10;;;6.30;99.90;12.80;88045.00;;;;5013412;28;20192;-71
2022/04/16 08:52:09;;;;;;;0.10;0.10;;;6.40;99.90;12.80;88045.00;;;;5013602;28;20207;-71
2022/04/16 08:54:39;;;;;;;0.10;0.10;;;6.40;99.90;12.80;88045.00;;;;5013902;28;20196;-71
2022/04/16 08:57:07;;;;;;;0.10;0.10;;;6.30;99.90;12.80;88045.00;;;;5012850;28;20204;-72
2022/04/16 08:59:36;;;;;;;0.10;0.10;;;6.20;99.90;12.80;88045.00;;;;5013459;28;20628;-71
2022/04/16 09:02:06;;;;;;;0.00;0.00;;;6.10;99.90;12.80;88045.00;;;;5013154;28;20195;-72
2022/04/16 09:04:34;;;;;;;0.10;0.10;;;6.30;99.90;12.80;88045.00;;;;5013300;28;20219;-71
2022/04/16 09:07:04;;;;;;;0.10;0.10;;;6.40;99.90;12.80;88045.00;;;;5012747;28;20198;-71
2022/04/16 09:09:32;;;;;;;0.10;0.10;;;6.60;99.90;12.80;88045.00;;;;5012587;28;20210;-72
2022/04/16 09:12:00;;;;;;;0.10;0.10;;;6.80;99.90;12.80;88045.00;;;;5014280;28;20222;-72
2022/04/16 09:14:42;;;;;;;0.10;0.10;;;6.90;99.90;12.80;88045.00;;;;5013915;28;20207;-71
2022/04/16 09:17:15;;;;;;;0.10;0.10;;;6.90;99.90;12.80;88045.00;;;;5014038;28;20192;-71
2022/04/16 09:19:44;;;;;;;0.10;0.10;;;7.00;99.90;12.80;88045.00;;;;5014501;28;20274;-71
2022/04/16 09:22:12;;;;;;;0.10;0.10;;;7.10;99.90;12.80;88045.00;;;;5013662;28;20661;-71
2022/04/16 09:24:48;;;;;;;0.10;0.10;;;7.20;99.90;12.80;88045.00;;;;5013121;28;20207;-70
2022/04/16 09:27:16;;;;;;;0.10;0.10;;;7.30;62.70;12.80;88045.00;;;;5013275;28;20628;-70
2022/04/16 09:29:46;;;;;;;0.10;0.10;;;7.40;1.00;12.80;88045.00;;;;5013121;28;20198;-71
2022/04/16 09:32:23;;;;;;;0.10;0.10;;;7.40;1.00;12.80;88045.00;;;;5011550;28;20222;-71
2022/04/16 09:34:52;;;;;;;0.10;0.10;;;7.50;1.00;12.80;88045.00;;;;5012751;28;20677;-71
2022/04/16 09:37:24;;;;;;;0.10;0.10;;;7.70;1.00;12.80;88045.00;;;;5013229;28;20188;-71
2022/04/16 09:39:52;;;;;;;0.00;0.00;;;7.70;1.00;12.80;88045.00;;;;5012562;28;20295;-70
2022/04/16 09:42:27;;;;;;;0.10;0.10;;;7.50;1.00;12.80;88045.00;;;;5003848;28;20204;-70
2022/04/16 09:44:57;;;;;;;0.10;0.10;;;7.60;1.00;12.80;88045.00;;;;4992865;28;20213;-71
2022/04/16 09:47:26;;;;;;;0.10;0.10;;;7.80;22.10;12.80;88045.00;;;;5011976;28;20200;-71
2022/04/16 09:49:55;;;;;;;0.05;0.05;;;8.10;1.00;12.80;88045.00;;;;5005926;28;20283;-71
2022/04/16 09:52:25;;;;;;;0.10;0.10;;;8.20;1.00;12.80;88045.00;;;;4993439;28;20247;-70
2022/04/16 09:54:56;;;;;;;0.10;0.10;;;8.10;1.00;12.80;88045.00;;;;4992832;28;20196;-71
2022/04/16 09:57:30;;;;;;;0.10;0.10;;;7.90;1.00;12.80;88045.00;;;;5010220;28;20680;-70
2022/04/16 10:00:04;;;;;;;0.10;0.10;;;8.00;1.00;12.80;88045.00;;;;5012329;28;20683;-70
2022/04/16 10:02:42;;;;;;;0.10;0.10;;;8.10;1.00;12.80;88045.00;;;;5013314;28;20203;-71
2022/04/16 10:05:12;;;;;;;0.00;0.00;;;8.30;1.00;12.80;88045.00;;;;5012783;28;20728;-71
2022/04/16 10:07:42;;;;;;;0.10;0.10;;;8.50;99.90;12.80;88045.00;;;;5011396;28;20669;-71
2022/04/16 10:10:18;;;;;;;0.10;0.10;;;8.70;99.90;12.80;88045.00;;;;5013178;28;20311;-70
2022/04/16 10:13:08;;;;;;;0.10;0.10;;;8.80;99.90;12.80;88045.00;;;;5012527;28;20237;-70
2022/04/16 10:16:05;;;;;;;0.10;0.10;;;8.90;99.90;12.80;88045.00;;;;5011277;28;20208;-71
2022/04/16 10:18:35;;;;;;;0.10;0.10;;;9.00;99.90;12.80;88045.00;;;;5012967;28;20188;-70
2022/04/16 10:21:04;;;;;;;0.10;0.10;;;9.10;99.90;12.80;88045.00;;;;5012744;28;20208;-71
2022/04/16 10:23:41;;;;;;;0.10;0.10;;;9.10;99.90;12.80;88045.00;;;;5012711;28;20220;-71
2022/04/16 10:26:11;;;;;;;0.10;0.10;;;9.20;99.90;12.80;88045.00;;;;5011711;28;20234;-71
2022/04/16 10:28:43;;;;;;;0.10;0.10;;;9.30;99.90;12.80;88045.00;;;;5012274;28;20609;-71
2022/04/16 10:31:31;;;;;;;0.10;0.10;;;9.50;99.90;12.80;88045.00;;;;5012710;28;20238;-71
2022/04/16 10:34:06;;;;;;;0.10;0.10;;;9.20;99.90;12.80;88045.00;;;;5012160;28;20584;-72
2022/04/16 10:36:37;;;;;;;0.10;0.10;;;9.10;99.90;12.80;88045.00;;;;5012179;28;20257;-71
2022/04/16 10:39:16;;;;;;;0.10;0.10;;;9.10;99.90;12.80;88045.00;;;;5012324;28;20194;-72
2022/04/16 10:41:54;;;;;;;0.10;0.10;;;9.30;99.90;12.80;88045.00;;;;5012298;28;20222;-72
2022/04/16 10:44:23;;;;;;;0.10;0.10;;;9.60;99.90;12.80;88045.00;;;;5012048;28;20223;-72
2022/04/16 10:46:55;;;;;;;0.10;0.10;;;9.90;99.90;12.80;88045.00;;;;5011939;28;20200;-72
2022/04/16 10:49:26;;;;;;;0.10;0.10;;;10.10;99.90;12.80;88045.00;;;;5012986;28;20195;-71
2022/04/16 10:51:55;;;;;;;0.10;0.10;;;10.20;99.90;12.80;88045.00;;;;5016478;28;20225;-71
2022/04/16 10:54:34;;;;;;;0.10;0.10;;;10.20;99.90;12.80;88045.00;;;;5017752;28;20188;-71
2022/04/16 10:57:06;;;;;;;0.10;0.10;;;10.20;99.90;12.80;88045.00;;;;5013722;28;20552;-71
2022/04/16 10:59:40;;;;;;;0.10;0.10;;;10.20;99.90;12.80;88045.00;;;;5015863;28;20203;-71
2022/04/16 11:02:19;;;;;;;0.10;0.10;;;10.40;99.90;12.80;88045.00;;;;5016378;28;20207;-72
2022/04/16 11:04:59;;;;;;;0.10;0.10;;;10.60;99.90;12.80;88045.00;;;;5015749;28;20250;-72
2022/04/16 11:07:28;;;;;;;0.10;0.10;;;10.80;99.90;12.80;88045.00;;;;5016264;28;20195;-72
2022/04/16 11:09:57;;;;;;;0.10;0.10;;;10.90;99.90;12.80;88045.00;;;;5013309;28;20195;-72
2022/04/16 11:12:26;;;;;;;0.10;0.10;;;10.90;99.90;12.80;88045.00;;;;5011253;28;20214;-71
2022/04/16 11:14:55;;;;;;;0.10;0.10;;;10.90;1.00;12.80;88045.00;;;;5007123;28;20200;-71
2022/04/16 11:17:25;;;;;;;0.10;0.10;;;10.80;99.90;12.80;88045.00;;;;4995406;28;20197;-72
2022/04/16 11:20:00;;;;;;;0.10;0.10;;;10.90;1.00;12.80;88045.00;;;;4995975;28;20201;-71
2022/04/16 11:22:29;;;;;;;0.10;0.10;;;11.20;1.00;12.80;88045.00;;;;4996035;28;20666;-72
2022/04/16 11:24:58;;;;;;;0.10;0.10;;;11.50;99.90;12.80;88045.00;;;;4995952;28;20224;-71